Time;durP1;ratioP1;P1;durP2;ratioP2;P2;SDS_P1;SDS_P2;PMS_P1;PMS_P2;Temp;Humidity;BMP_temperature;BMP_pressure;BME280_temperature;BME280_humidity;BME280_pressure;Samples;Min_cycle;Max_cycle;Signal;HPM_P1;HPM_P2
2022/05/14 00:00:59;;;;;;;17.85;6.85;;;;;;;20.43;100.00;99799.69;5070082;28;20261;-75
2022/05/14 00:03:29;;;;;;;11.55;6.82;;;;;;;20.47;100.00;99819.75;5070310;28;20230;-74
2022/05/14 00:05:59;;;;;;;10.32;6.28;;;;;;;20.23;100.00;99782.66;5069875;28;20277;-74
2022/05/14 00:08:27;;;;;;;8.10;6.43;;;;;;;20.04;100.00;99797.25;5070254;28;20203;-74
2022/05/14 00:13:39;;;;;;;8.93;6.28;;;;;;;19.98;100.00;99809.69;5069069;28;20201;-74
2022/05/14 00:16:07;;;;;;;7.35;5.65;;;;;;;19.85;100.00;99780.25;5069124;28;20286;-74
2022/05/14 00:18:36;;;;;;;6.55;5.78;;;;;;;19.98;100.00;99813.19;5074178;28;20191;-74
2022/05/14 00:21:04;;;;;;;6.75;6.05;;;;;;;19.98;100.00;99817.59;5073535;28;20222;-74
2022/05/14 00:23:31;;;;;;;15.38;5.82;;;;;;;19.75;100.00;99807.72;5074105;28;20583;-74
2022/05/14 00:25:58;;;;;;;5.22;4.72;;;;;;;19.78;100.00;99812.88;5038890;28;20191;-74
2022/05/14 00:28:25;;;;;;;9.55;5.05;;;;;;;19.76;100.00;99815.53;5073684;28;20199;-74
2022/05/14 00:30:51;;;;;;;6.55;4.63;;;;;;;19.61;98.30;99800.19;5073439;28;20199;-75
2022/05/14 00:33:19;;;;;;;4.63;4.05;;;;;;;19.57;98.00;99809.06;5073797;28;20253;-74
2022/05/14 00:35:47;;;;;;;6.80;3.58;;;;;;;19.42;99.28;99798.06;5041692;28;20207;-74
2022/05/14 00:38:14;;;;;;;7.05;4.50;;;;;;;19.41;99.12;99802.44;5067524;28;20618;-75
2022/05/14 00:40:44;;;;;;;4.38;4.05;;;;;;;19.01;100.00;99791.16;5072547;28;20217;-75
2022/05/14 00:43:12;;;;;;;7.47;4.25;;;;;;;19.15;100.00;99776.81;5037671;28;20222;-74
2022/05/14 00:45:41;;;;;;;11.23;4.22;;;;;;;19.25;99.50;99791.44;5034878;28;20199;-74
2022/05/14 00:48:12;;;;;;;5.80;4.53;;;;;;;19.29;99.96;99782.56;5068946;28;20206;-74
2022/05/14 00:50:42;;;;;;;4.32;3.92;;;;;;;19.24;100.00;99773.94;5073125;28;20201;-74
2022/05/14 00:53:16;;;;;;;4.32;3.90;;;;;;;19.38;99.21;99777.97;5073199;28;20186;-74
2022/05/14 00:55:46;;;;;;;6.68;3.88;;;;;;;19.23;100.00;99766.94;5073927;28;20203;-74
2022/05/14 00:58:15;;;;;;;5.25;4.10;;;;;;;19.24;100.00;99794.09;5073327;28;20195;-74
2022/05/14 01:00:42;;;;;;;4.72;4.32;;;;;;;19.33;99.39;99803.53;5072603;28;20214;-74
2022/05/14 01:03:09;;;;;;;6.22;3.75;;;;;;;19.18;100.00;99795.13;5073068;28;20222;-74
2022/05/14 01:05:36;;;;;;;4.40;4.00;;;;;;;18.93;100.00;99787.84;5073284;28;20203;-74
2022/05/14 01:08:04;;;;;;;5.45;3.90;;;;;;;18.91;100.00;99764.22;5053932;28;20195;-75
2022/05/14 01:10:43;;;;;;;4.63;4.15;;;;;;;19.08;100.00;99777.84;5037472;28;20203;-74
2022/05/14 01:13:10;;;;;;;8.43;4.68;;;;;;;19.13;100.00;99791.72;5073069;28;20203;-74
2022/05/14 01:15:43;;;;;;;3.83;3.53;;;;;;;19.05;100.00;99788.41;5073370;28;20214;-74
2022/05/14 01:18:11;;;;;;;5.90;4.40;;;;;;;19.05;100.00;99790.19;5057189;28;20662;-74
2022/05/14 01:20:38;;;;;;;5.95;4.80;;;;;;;18.61;100.00;99713.31;5073164;28;20228;-74
2022/05/14 01:23:15;;;;;;;3.75;3.42;;;;;;;19.16;100.00;99781.13;5072346;28;20277;-74
2022/05/14 01:28:34;;;;;;;4.25;3.85;;;;;;;19.23;100.00;99793.22;5068683;28;20210;-74
2022/05/14 01:31:02;;;;;;;8.60;4.20;;;;;;;19.33;99.79;99793.00;5072456;28;20202;-74
2022/05/14 01:33:29;;;;;;;8.15;4.65;;;;;;;19.25;100.00;99798.47;5072430;28;20207;-74
2022/05/14 01:35:56;;;;;;;7.53;3.85;;;;;;;19.26;100.00;99787.88;5072713;28;20199;-74
2022/05/14 01:38:24;;;;;;;8.35;5.03;;;;;;;19.19;100.00;99770.53;5072415;28;20846;-74
2022/05/14 01:40:51;;;;;;;5.93;4.97;;;;;;;19.14;100.00;99772.44;5071886;28;20234;-74
2022/05/14 01:43:19;;;;;;;5.40;4.60;;;;;;;18.89;100.00;99755.53;5072682;28;20245;-74
2022/05/14 01:45:47;;;;;;;6.32;4.40;;;;;;;18.91;100.00;99784.38;5072296;28;20202;-74
2022/05/14 01:48:14;;;;;;;5.00;4.50;;;;;;;18.62;100.00;99753.56;5072312;28;20564;-74
2022/05/14 01:50:42;;;;;;;10.07;4.50;;;;;;;18.64;100.00;99785.91;5072641;28;20199;-74
2022/05/14 01:53:09;;;;;;;10.45;4.70;;;;;;;18.61;100.00;99788.59;5072543;28;20191;-74
2022/05/14 01:55:36;;;;;;;8.73;4.60;;;;;;;18.71;100.00;99803.25;5072601;28;20191;-74
2022/05/14 01:58:36;;;;;;;6.22;4.90;;;;;;;18.65;100.00;99793.75;5072390;28;20198;-74
2022/05/14 02:00:52;;;;;;;5.55;4.55;;;;;;;18.78;100.00;99799.56;5067706;28;20211;-74
2022/05/14 02:03:19;;;;;;;9.02;4.85;;;;;;;18.90;100.00;99794.06;5071896;28;20199;-74
2022/05/14 02:05:46;;;;;;;6.63;5.22;;;;;;;18.89;100.00;99792.31;5072112;28;20206;-74
2022/05/14 02:08:12;;;;;;;6.57;4.68;;;;;;;18.76;100.00;99762.00;5072144;28;20206;-74
2022/05/14 02:10:39;;;;;;;4.47;4.15;;;;;;;18.95;100.00;99792.16;5072165;28;20725;-74
2022/05/14 02:13:06;;;;;;;4.30;3.63;;;;;;;18.69;100.00;99784.88;5072043;28;20577;-74
2022/05/14 02:15:33;;;;;;;6.30;4.90;;;;;;;18.73;100.00;99762.03;5071690;28;20195;-74
2022/05/14 02:18:01;;;;;;;4.80;4.30;;;;;;;18.99;100.00;99775.44;5071529;28;20690;-74
2022/05/14 02:20:28;;;;;;;4.43;4.03;;;;;;;19.14;100.00;99796.09;5071921;28;20223;-74
2022/05/14 02:22:55;;;;;;;6.78;4.57;;;;;;;19.19;100.00;99793.34;5071825;28;20210;-74
2022/05/14 02:25:21;;;;;;;12.38;5.05;;;;;;;19.06;100.00;99769.13;5071577;28;20206;-74
2022/05/14 02:27:48;;;;;;;4.55;4.15;;;;;;;19.17;100.00;99784.63;5071950;28;20570;-74
2022/05/14 02:30:15;;;;;;;10.43;4.75;;;;;;;19.26;100.00;99793.13;5071865;28;20626;-74
2022/05/14 02:32:42;;;;;;;8.85;4.65;;;;;;;19.24;100.00;99794.09;5071452;28;20191;-74
2022/05/14 02:35:10;;;;;;;6.30;4.55;;;;;;;19.30;100.00;99781.66;5072017;28;20199;-74
2022/05/14 02:37:37;;;;;;;5.32;4.35;;;;;;;19.30;100.00;99767.63;5071066;28;20214;-74
2022/05/14 02:40:05;;;;;;;6.38;4.50;;;;;;;19.39;100.00;99769.19;5070508;28;20702;-74
2022/05/14 02:42:32;;;;;;;5.65;3.75;;;;;;;19.52;100.00;99789.03;5070888;28;20702;-74
2022/05/14 02:44:59;;;;;;;8.10;4.25;;;;;;;19.49;99.58;99775.97;5071435;28;20186;-74
2022/05/14 02:47:26;;;;;;;5.93;4.47;;;;;;;19.58;99.49;99789.75;5071261;28;20195;-74
2022/05/14 02:49:53;;;;;;;6.25;4.55;;;;;;;19.49;100.00;99760.19;5070831;28;20202;-74
2022/05/14 02:52:21;;;;;;;9.77;4.63;;;;;;;19.61;97.56;99767.75;5071346;28;20202;-74
2022/05/14 02:54:48;;;;;;;8.23;4.38;;;;;;;19.66;96.22;99765.84;5032315;28;20659;-74
2022/05/14 02:57:16;;;;;;;7.80;4.03;;;;;;;19.73;95.49;99781.44;5051289;28;20257;-74
2022/05/14 02:59:42;;;;;;;4.93;4.35;;;;;;;19.54;95.58;99745.16;5070460;28;20221;-74
2022/05/14 03:02:10;;;;;;;4.93;3.58;;;;;;;19.69;97.03;99786.84;5071364;28;20202;-74
2022/05/14 03:04:39;;;;;;;5.07;4.18;;;;;;;19.73;96.89;99783.19;5033761;28;20750;-74
2022/05/14 03:07:07;;;;;;;7.32;4.03;;;;;;;19.74;98.04;99783.16;5071189;28;20213;-74
2022/05/14 03:09:36;;;;;;;7.53;3.92;;;;;;;19.73;98.07;99767.41;5070734;28;20222;-74
2022/05/14 03:12:04;;;;;;;7.10;3.78;;;;;;;19.76;98.97;99767.34;5071353;28;20238;-74
2022/05/14 03:14:31;;;;;;;8.52;4.45;;;;;;;20.00;96.84;99781.59;5070420;28;20203;-74
2022/05/14 03:16:58;;;;;;;8.45;3.83;;;;;;;19.99;95.76;99762.28;5032230;28;20204;-74
2022/05/14 03:19:25;;;;;;;6.65;4.05;;;;;;;20.17;94.22;99768.81;5069210;28;20206;-74
2022/05/14 03:21:52;;;;;;;3.88;3.55;;;;;;;20.23;94.13;99777.38;5031616;28;20219;-74
2022/05/14 03:24:19;;;;;;;7.00;4.00;;;;;;;20.18;94.16;99755.59;5066519;28;20195;-74
2022/05/14 03:26:48;;;;;;;7.13;4.07;;;;;;;20.18;93.64;99729.28;5070145;28;20202;-74
2022/05/14 03:29:15;;;;;;;7.35;3.70;;;;;;;20.37;93.71;99750.66;5070740;28;20588;-74
2022/05/14 03:31:42;;;;;;;5.30;4.00;;;;;;;20.45;92.57;99738.13;5070629;28;20218;-74
2022/05/14 03:34:10;;;;;;;4.10;3.67;;;;;;;20.73;88.70;99762.72;5070934;28;20207;-74
2022/05/14 03:36:37;;;;;;;7.55;3.80;;;;;;;20.85;85.45;99764.09;5070618;28;20206;-74
2022/05/14 03:39:05;;;;;;;3.70;3.40;;;;;;;20.83;79.62;99779.13;5070629;28;20207;-74
2022/05/14 03:41:32;;;;;;;6.60;5.38;;;;;;;20.90;95.27;99788.56;5070373;28;20313;-74
2022/05/14 03:44:01;;;;;;;9.63;5.50;;;;;;;20.68;100.00;99790.13;5070759;28;20222;-74
2022/05/14 03:46:28;;;;;;;9.63;5.28;;;;;;;20.57;100.00;99779.06;5069558;28;20205;-75
2022/05/14 03:48:54;;;;;;;7.07;5.45;;;;;;;20.54;100.00;99779.16;5023749;28;20663;-74
2022/05/14 03:51:21;;;;;;;9.60;5.30;;;;;;;20.39;100.00;99771.69;5067521;28;20260;-74
2022/05/14 03:53:48;;;;;;;7.55;4.97;;;;;;;20.56;100.00;99799.25;5074465;28;20195;-74
2022/05/14 03:56:15;;;;;;;11.93;5.88;;;;;;;20.59;100.00;99807.06;5074476;28;20202;-74
2022/05/14 03:58:42;;;;;;;9.02;5.75;;;;;;;20.56;100.00;99806.28;5074552;28;20638;-74
2022/05/14 04:01:10;;;;;;;8.45;6.10;;;;;;;20.38;100.00;99801.56;5073753;28;20634;-74
2022/05/14 04:03:37;;;;;;;10.95;6.05;;;;;;;20.57;100.00;99811.53;5073993;28;20209;-74
2022/05/14 04:06:05;;;;;;;12.57;6.50;;;;;;;20.47;100.00;99835.56;5074198;28;20201;-74
2022/05/14 04:08:32;;;;;;;7.63;6.47;;;;;;;20.30;100.00;99787.78;5073880;28;20198;-75
2022/05/14 04:10:59;;;;;;;9.27;6.00;;;;;;;20.35;100.00;99825.38;5073941;28;20205;-75
2022/05/14 04:13:27;;;;;;;9.02;6.97;;;;;;;20.53;100.00;99814.28;5068090;28;20195;-75
2022/05/14 04:15:53;;;;;;;7.03;5.75;;;;;;;20.57;100.00;99810.66;5055228;28;20281;-74
2022/05/14 04:18:24;;;;;;;8.45;5.82;;;;;;;20.86;100.00;99815.06;5073895;28;20194;-74
2022/05/14 04:20:53;;;;;;;5.18;4.78;;;;;;;21.07;100.00;99815.25;5073921;28;20682;-74
2022/05/14 04:23:20;;;;;;;29.40;5.38;;;;;;;21.11;96.42;99803.72;5029715;28;20195;-74
2022/05/14 04:25:50;;;;;;;9.68;6.18;;;;;;;21.28;100.00;99821.63;5073778;28;20198;-74
2022/05/14 04:28:16;;;;;;;15.77;5.25;;;;;;;21.30;97.77;99784.66;5073558;28;20702;-74
2022/05/14 04:30:43;;;;;;;11.80;6.30;;;;;;;21.53;99.25;99832.22;5073955;28;20198;-74
2022/05/14 04:33:10;;;;;;;7.65;6.45;;;;;;;21.67;100.00;99841.41;5073799;28;20211;-75
2022/05/14 04:35:39;;;;;;;10.15;6.63;;;;;;;21.48;100.00;99820.94;5073271;28;20736;-74
2022/05/14 04:38:06;;;;;;;15.90;7.45;;;;;;;21.31;100.00;99820.66;5054979;28;20203;-75
2022/05/14 04:40:34;;;;;;;11.07;6.93;;;;;;;21.60;100.00;99823.19;5073062;28;20227;-74
2022/05/14 04:43:01;;;;;;;14.90;7.90;;;;;;;21.80;100.00;99848.88;5037930;28;20835;-74
2022/05/14 04:45:29;;;;;;;10.25;7.78;;;;;;;22.00;100.00;99843.81;5073168;28;20296;-74
2022/05/14 04:47:56;;;;;;;14.65;7.30;;;;;;;22.52;100.00;99845.41;5073145;28;20199;-74
2022/05/14 04:50:22;;;;;;;14.93;7.40;;;;;;;22.79;95.45;99840.91;5072881;28;20195;-74
2022/05/14 04:52:50;;;;;;;9.52;6.78;;;;;;;23.19;88.64;99851.63;5070787;28;20199;-74
2022/05/14 04:55:17;;;;;;;11.65;7.63;;;;;;;22.29;95.90;99867.41;5072669;28;20203;-74
2022/05/14 04:57:44;;;;;;;12.50;7.28;;;;;;;22.41;96.40;99876.66;5073267;28;20198;-74
2022/05/14 05:00:13;;;;;;;11.02;7.40;;;;;;;22.46;96.55;99875.59;5073232;28;20198;-74
2022/05/14 05:05:24;;;;;;;11.65;7.22;;;;;;;22.73;96.61;99877.22;5071942;28;20206;-74
2022/05/14 05:07:52;;;;;;;14.52;8.75;;;;;;;22.95;94.72;99882.56;5053730;28;20207;-74
2022/05/14 05:10:19;;;;;;;11.13;7.95;;;;;;;22.71;94.35;99857.06;5072893;28;20191;-74
2022/05/14 05:12:46;;;;;;;14.40;7.80;;;;;;;22.79;95.20;99831.22;5072580;28;20271;-73
2022/05/14 05:15:13;;;;;;;14.10;7.32;;;;;;;23.26;91.96;99852.28;5072518;28;20588;-74
2022/05/14 05:17:40;;;;;;;13.50;7.80;;;;;;;23.64;91.15;99878.06;5037840;28;20609;-74
2022/05/14 05:20:09;;;;;;;13.98;7.70;;;;;;;24.16;87.56;99859.03;5068737;28;20205;-77
2022/05/14 05:22:36;;;;;;;13.00;7.05;;;;;;;24.27;83.90;99861.19;5072119;28;20227;-73
2022/05/14 05:25:06;;;;;;;12.85;7.80;;;;;;;24.67;83.48;99862.91;5037653;28;20306;-69
2022/05/14 05:27:33;;;;;;;12.13;7.25;;;;;;;25.55;80.69;99861.38;5062177;28;20272;-72
2022/05/14 05:30:00;;;;;;;14.55;6.78;;;;;;;26.55;72.04;99885.41;5071669;28;20567;-72
2022/05/14 05:32:27;;;;;;;11.98;7.60;;;;;;;27.12;67.87;99889.38;5058790;28;20199;-72
2022/05/14 05:34:53;;;;;;;12.90;7.40;;;;;;;27.27;66.95;99895.66;5054565;28;20218;-73
2022/05/14 05:37:20;;;;;;;16.45;7.35;;;;;;;27.65;65.93;99902.34;5063194;28;20199;-73
2022/05/14 05:39:47;;;;;;;15.52;6.93;;;;;;;27.34;67.04;99913.00;5057824;28;20588;-72
2022/05/14 05:42:15;;;;;;;10.77;7.05;;;;;;;26.61;71.72;99941.78;5052103;28;20231;-73
2022/05/14 05:44:42;;;;;;;15.35;7.18;;;;;;;25.60;76.57;99937.22;5056220;28;20195;-72
2022/05/14 05:47:09;;;;;;;8.60;7.57;;;;;;;23.93;84.51;99951.84;5068217;28;20210;-72
2022/05/14 05:49:39;;;;;;;13.60;8.02;;;;;;;22.75;92.43;99945.91;5060022;28;20195;-73
2022/05/14 05:52:07;;;;;;;14.02;7.97;;;;;;;22.60;95.95;99957.00;5054358;28;20212;-73
2022/05/14 05:57:19;;;;;;;13.85;7.60;;;;;;;22.81;98.35;99886.66;5062750;28;20221;-72
2022/05/14 05:59:47;;;;;;;11.82;7.43;;;;;;;23.46;93.40;99944.97;5071913;28;20191;-73
2022/05/14 06:02:13;;;;;;;12.75;7.75;;;;;;;23.91;85.58;99945.75;5066599;28;20227;-73
2022/05/14 06:04:40;;;;;;;9.38;7.20;;;;;;;23.96;83.84;99962.31;5071248;28;20597;-73
2022/05/14 06:07:07;;;;;;;14.18;6.70;;;;;;;23.60;85.29;99939.97;5071932;28;20281;-72
2022/05/14 06:09:34;;;;;;;18.05;8.40;;;;;;;23.50;85.70;99950.09;5072303;28;20210;-73
2022/05/14 06:12:01;;;;;;;15.52;8.10;;;;;;;23.43;89.62;99966.28;5072069;28;20198;-72
2022/05/14 06:14:29;;;;;;;12.32;7.32;;;;;;;23.17;94.59;99949.59;5070854;28;20213;-71
2022/05/14 06:16:56;;;;;;;11.30;7.43;;;;;;;23.62;94.86;99951.38;5071772;28;20595;-71
2022/05/14 06:19:23;;;;;;;12.02;7.53;;;;;;;24.00;93.21;99961.25;5070829;28;20199;-72
2022/05/14 06:21:50;;;;;;;9.63;6.88;;;;;;;24.16;93.11;99959.72;5071894;28;20635;-72
2022/05/14 06:24:16;;;;;;;14.35;7.50;;;;;;;24.48;93.11;99971.56;5034659;28;20191;-72
2022/05/14 06:26:43;;;;;;;8.07;6.78;;;;;;;24.81;90.03;99963.06;5064930;28;20208;-72
2022/05/14 06:29:10;;;;;;;10.98;6.47;;;;;;;24.90;89.57;99975.97;5057392;28;20256;-72
2022/05/14 06:31:38;;;;;;;14.95;7.97;;;;;;;24.77;89.98;99970.28;5065528;28;20203;-69
2022/05/14 06:34:06;;;;;;;8.60;7.07;;;;;;;24.92;87.21;99969.66;5066679;28;20195;-72
2022/05/14 06:36:33;;;;;;;12.80;6.03;;;;;;;25.02;84.17;99947.06;5070695;28;20203;-74
2022/05/14 06:39:00;;;;;;;12.57;6.10;;;;;;;25.35;81.81;99965.00;5061289;28;20901;-70
2022/05/14 06:41:27;;;;;;;9.95;5.80;;;;;;;25.40;79.38;99968.31;5053698;28;20238;-71
2022/05/14 06:43:54;;;;;;;10.35;5.63;;;;;;;25.37;76.71;99945.41;5057996;28;20249;-70
2022/05/14 06:46:21;;;;;;;8.73;5.35;;;;;;;25.17;80.65;99927.78;5050659;28;20280;-70
2022/05/14 06:48:49;;;;;;;10.40;5.22;;;;;;;25.67;76.89;99959.03;5046655;28;20206;-71
2022/05/14 06:51:21;;;;;;;8.32;5.13;;;;;;;25.71;74.95;99962.41;5070583;28;20213;-70
2022/05/14 06:53:50;;;;;;;6.72;5.20;;;;;;;25.64;75.15;99946.78;5070992;28;20194;-70
2022/05/14 06:56:19;;;;;;;7.13;4.70;;;;;;;25.52;76.02;99960.63;5064310;28;20214;-71
2022/05/14 06:58:49;;;;;;;7.32;4.55;;;;;;;25.21;73.99;99957.69;5070326;28;20191;-70
2022/05/14 07:01:17;;;;;;;7.28;4.72;;;;;;;25.38;74.38;99964.84;5069856;28;20305;-70
2022/05/14 07:06:39;;;;;;;10.75;5.05;;;;;;;25.52;71.48;99952.66;5070900;28;20875;-71
2022/05/14 07:09:06;;;;;;;9.35;5.00;;;;;;;25.24;76.18;99959.31;5035235;28;20203;-71
2022/05/14 07:11:35;;;;;;;10.85;5.15;;;;;;;25.36;69.89;99958.75;5070057;28;20194;-71
2022/05/14 07:14:01;;;;;;;7.32;4.93;;;;;;;25.12;72.82;99963.41;5050879;28;20995;-71
2022/05/14 07:16:28;;;;;;;7.50;5.55;;;;;;;25.08;72.20;99936.16;5070433;28;20194;-71
2022/05/14 07:18:55;;;;;;;6.10;5.32;;;;;;;25.16;73.20;99941.97;5070938;28;20190;-68
2022/05/14 07:21:22;;;;;;;9.20;5.28;;;;;;;25.00;73.90;99958.69;5070163;28;20249;-69
2022/05/14 07:23:50;;;;;;;8.68;5.55;;;;;;;25.41;75.72;99959.38;5051803;28;20207;-68
2022/05/14 07:26:17;;;;;;;6.13;4.88;;;;;;;25.69;73.59;99938.56;5070074;28;20202;-67
2022/05/14 07:28:44;;;;;;;11.30;5.30;;;;;;;25.44;72.26;99954.78;5070716;28;20203;-69
2022/05/14 07:31:11;;;;;;;8.80;5.78;;;;;;;25.54;71.18;99972.03;5069157;28;20206;-69
2022/05/14 07:33:38;;;;;;;10.82;5.40;;;;;;;25.39;73.01;99971.88;5070420;28;20213;-69
2022/05/14 07:36:08;;;;;;;6.70;4.97;;;;;;;25.27;72.99;99969.78;5034978;28;20293;-69
2022/05/14 07:38:37;;;;;;;8.95;5.00;;;;;;;25.52;73.49;99984.53;5070086;28;20651;-69
2022/05/14 07:41:05;;;;;;;8.55;5.20;;;;;;;25.65;75.93;99979.47;5030762;28;20248;-69
2022/05/14 07:43:36;;;;;;;6.30;4.68;;;;;;;25.88;71.74;99968.59;5055033;28;20233;-68
2022/05/14 07:46:07;;;;;;;5.45;4.57;;;;;;;26.03;71.07;99982.94;5070575;28;20229;-68
2022/05/14 07:48:38;;;;;;;7.55;4.70;;;;;;;26.01;69.67;99983.00;5069998;28;20199;-68
2022/05/14 07:51:07;;;;;;;10.00;5.05;;;;;;;26.14;68.63;99985.91;5068792;28;20206;-68
2022/05/14 07:53:34;;;;;;;8.45;5.15;;;;;;;26.23;68.35;99990.78;5069570;28;20206;-68
2022/05/14 07:56:08;;;;;;;7.18;4.00;;;;;;;26.11;68.73;99989.56;5070036;28;20210;-68
2022/05/14 07:58:35;;;;;;;7.05;4.78;;;;;;;26.53;67.78;99996.34;5069739;28;20206;-68
2022/05/14 08:01:02;;;;;;;5.55;5.00;;;;;;;26.59;64.63;99964.97;5070068;28;20194;-70
2022/05/14 08:03:28;;;;;;;7.03;4.50;;;;;;;26.55;67.28;99989.13;5070387;28;20287;-70
2022/05/14 08:05:56;;;;;;;8.13;5.10;;;;;;;26.79;66.99;99984.34;5069838;28;20203;-68
2022/05/14 08:08:23;;;;;;;5.18;4.65;;;;;;;27.06;65.13;99981.09;5069926;28;20209;-68
2022/05/14 08:10:51;;;;;;;5.13;4.63;;;;;;;26.54;63.41;99988.28;5070105;28;20210;-68
2022/05/14 08:13:20;;;;;;;5.82;4.38;;;;;;;26.44;65.28;99996.81;5069950;28;20205;-68
2022/05/14 08:15:49;;;;;;;8.25;4.70;;;;;;;26.67;67.00;99985.84;5069854;28;20203;-68
2022/05/14 08:18:17;;;;;;;15.57;9.98;;;;;;;27.02;63.56;99999.97;5069715;28;20667;-68
2022/05/14 08:20:45;;;;;;;6.55;4.68;;;;;;;27.31;63.53;100001.06;5069338;28;20381;-68
2022/05/14 08:25:59;;;;;;;5.40;4.85;;;;;;;27.67;62.02;100007.03;5070180;28;20324;-68
2022/05/14 08:28:27;;;;;;;6.20;5.22;;;;;;;27.37;61.67;100003.38;5069910;28;20203;-67
2022/05/14 08:30:55;;;;;;;5.75;4.93;;;;;;;26.94;61.78;99989.72;5055358;28;20675;-68
2022/05/14 08:33:21;;;;;;;6.03;5.32;;;;;;;27.09;62.83;99998.69;5057051;28;20671;-68
2022/05/14 08:35:49;;;;;;;6.22;4.65;;;;;;;27.32;63.64;99986.78;5064594;28;20199;-69
2022/05/14 08:38:18;;;;;;;5.85;5.25;;;;;;;27.69;60.95;100013.13;5030109;28;20203;-68
2022/05/14 08:40:52;;;;;;;7.32;4.75;;;;;;;27.78;61.04;100007.28;5066750;28;20202;-68
2022/05/14 08:43:23;;;;;;;5.55;5.05;;;;;;;27.67;60.17;99990.19;5071392;28;20236;-69
2022/05/14 08:45:51;;;;;;;5.32;4.82;;;;;;;27.41;61.77;100016.44;5072661;28;20289;-69
2022/05/14 08:48:22;;;;;;;5.72;5.10;;;;;;;27.59;60.20;99993.28;5052611;28;20199;-68
2022/05/14 08:50:55;;;;;;;9.98;5.63;;;;;;;27.66;60.67;100009.78;5052996;28;20253;-68
2022/05/14 08:53:25;;;;;;;11.20;5.50;;;;;;;27.38;61.66;100008.63;5052942;28;20698;-69
2022/05/14 08:56:01;;;;;;;7.07;4.95;;;;;;;26.72;63.31;100002.41;5052872;28;20676;-68
2022/05/14 08:58:37;;;;;;;7.60;4.70;;;;;;;26.91;64.94;100027.16;5052844;28;20203;-68
2022/05/14 09:01:08;;;;;;;5.78;5.28;;;;;;;27.14;65.86;100019.75;5050496;28;20203;-69
2022/05/14 09:03:35;;;;;;;5.93;4.82;;;;;;;27.38;65.97;100019.28;5070219;28;20313;-73
2022/05/14 09:06:02;;;;;;;7.72;5.57;;;;;;;27.56;64.79;100007.63;5072760;28;20215;-71
2022/05/14 09:08:29;;;;;;;13.07;6.70;;;;;;;27.27;64.92;100004.81;5073026;28;20191;-71
2022/05/14 09:11:00;;;;;;;5.43;4.90;;;;;;;27.07;67.22;100009.44;5073032;28;20209;-70
2022/05/14 09:13:29;;;;;;;8.02;5.15;;;;;;;27.04;67.04;100009.59;5072985;28;20199;-68
2022/05/14 09:15:59;;;;;;;6.90;4.70;;;;;;;26.57;67.95;99981.97;5073106;28;20206;-70
2022/05/14 09:18:32;;;;;;;8.95;6.43;;;;;;;26.70;69.77;100003.44;5072322;28;20242;-70
2022/05/14 09:21:02;;;;;;;8.73;5.65;;;;;;;26.96;71.00;100002.97;5054700;28;20191;-71
2022/05/14 09:23:33;;;;;;;7.13;5.47;;;;;;;27.19;70.74;99997.25;5073098;28;20226;-68
2022/05/14 09:26:09;;;;;;;8.15;6.30;;;;;;;27.21;68.31;99994.50;5060966;28;20207;-68
2022/05/14 09:28:41;;;;;;;11.00;5.70;;;;;;;27.45;68.46;100015.38;5062162;28;20217;-69
2022/05/14 09:31:09;;;;;;;9.13;5.55;;;;;;;27.22;66.25;99998.91;5072969;28;20670;-68
2022/05/14 09:33:42;;;;;;;7.22;5.95;;;;;;;27.28;66.44;99999.44;5072785;28;20199;-67
2022/05/14 09:36:15;;;;;;;6.55;5.72;;;;;;;27.67;65.02;99999.03;5072335;28;20207;-67
2022/05/14 09:38:43;;;;;;;5.80;5.30;;;;;;;27.95;61.16;99983.19;5071562;28;20244;-67
2022/05/14 09:41:13;;;;;;;7.40;4.97;;;;;;;27.71;61.60;99979.28;5068449;28;20248;-67
2022/05/14 09:43:40;;;;;;;12.40;6.50;;;;;;;27.74;62.97;99978.22;5060588;28;20234;-67
2022/05/14 09:46:11;;;;;;;6.10;5.50;;;;;;;27.83;61.80;99988.34;5072234;28;20199;-69
2022/05/14 09:48:47;;;;;;;9.38;5.68;;;;;;;27.58;64.31;99981.75;5071601;28;20233;-68
2022/05/14 09:51:27;;;;;;;7.50;6.35;;;;;;;27.51;64.53;99980.38;5072455;28;20229;-69
2022/05/14 09:53:55;;;;;;;7.45;6.07;;;;;;;27.53;64.43;99969.66;5072523;28;20201;-68
2022/05/14 09:57:05;;;;;;;6.32;5.68;;;;;;;27.76;64.77;99997.63;5071964;28;20298;-69
2022/05/14 10:00:05;;;;;;;8.98;5.85;;;;;;;27.92;64.41;99999.34;5011457;28;20786;-68
2022/05/14 10:02:45;;;;;;;7.65;5.68;;;;;;;27.97;63.32;99996.41;5009855;28;20236;-68
2022/05/14 10:05:22;;;;;;;7.60;5.15;;;;;;;27.72;64.84;99983.63;4978956;28;20215;-68
2022/05/14 10:07:54;;;;;;;11.55;5.68;;;;;;;28.11;63.91;99993.81;5014413;28;20200;-67
2022/05/14 10:10:33;;;;;;;13.30;7.95;;;;;;;28.18;64.66;99994.34;5029490;28;21063;-65
2022/05/14 10:13:06;;;;;;;9.32;5.47;;;;;;;27.99;63.04;99992.72;5027382;28;20759;-68
2022/05/14 10:15:41;;;;;;;6.05;5.55;;;;;;;27.73;64.27;99984.50;5029160;28;20220;-68
2022/05/14 10:18:15;;;;;;;5.82;5.15;;;;;;;28.02;62.67;99994.34;5027552;28;20637;-69
2022/05/14 10:20:52;;;;;;;9.02;5.38;;;;;;;28.35;61.16;100002.22;5029055;28;20195;-69
2022/05/14 10:26:46;;;;;;;11.40;5.13;;;;;;;27.60;63.36;99925.72;5028529;28;20765;-70
2022/05/14 10:29:26;;;;;;;5.85;4.80;;;;;;;28.22;63.52;99987.91;5029383;28;20204;-68
2022/05/14 10:32:00;;;;;;;5.30;4.45;;;;;;;28.42;62.23;99979.56;5028422;28;20211;-68
2022/05/14 10:34:37;;;;;;;6.10;5.50;;;;;;;28.72;61.30;99974.19;5029089;28;20226;-68
2022/05/14 10:37:14;;;;;;;6.63;4.90;;;;;;;28.37;60.59;99960.28;5065501;28;20194;-69
2022/05/14 10:39:47;;;;;;;5.95;5.43;;;;;;;28.67;60.30;99961.16;5071004;28;20202;-68
2022/05/14 10:42:20;;;;;;;8.15;4.85;;;;;;;28.55;61.28;99956.50;5070683;28;20284;-69
2022/05/14 10:44:52;;;;;;;7.75;5.47;;;;;;;28.89;61.30;99950.00;5070727;28;20733;-68
2022/05/14 10:47:21;;;;;;;7.95;5.30;;;;;;;29.33;60.77;99964.09;5070999;28;20202;-68
2022/05/14 10:49:55;;;;;;;7.18;4.97;;;;;;;29.11;58.10;99957.53;5071239;28;20202;-69
2022/05/14 10:52:24;;;;;;;6.03;4.60;;;;;;;29.17;61.11;99963.34;5071139;28;20589;-69
2022/05/14 10:54:51;;;;;;;7.43;5.72;;;;;;;28.62;63.71;99951.66;5070927;28;20311;-69
2022/05/14 10:57:42;;;;;;;7.20;5.38;;;;;;;28.69;63.91;99943.22;5070332;28;20694;-68
2022/05/14 11:00:32;;;;;;;6.70;5.15;;;;;;;29.02;64.24;99965.16;5050775;28;20293;-69
2022/05/14 11:03:06;;;;;;;5.18;4.70;;;;;;;28.83;61.15;99950.38;5070170;28;20222;-68
2022/05/14 11:05:35;;;;;;;10.30;6.50;;;;;;;28.77;61.28;99948.09;5051632;28;20206;-70
2022/05/14 11:08:31;;;;;;;29.35;17.63;;;;;;;28.91;61.65;99924.06;5059789;28;20210;-69
2022/05/14 11:11:06;;;;;;;6.07;5.20;;;;;;;28.92;60.96;99945.34;5070075;28;20604;-70
2022/05/14 11:13:34;;;;;;;19.25;5.45;;;;;;;28.94;61.54;99913.19;5070650;28;20274;-69
2022/05/14 11:16:03;;;;;;;8.25;5.88;;;;;;;28.80;59.69;99927.41;5070183;28;20210;-69
2022/05/14 11:18:31;;;;;;;7.68;5.53;;;;;;;28.97;59.95;99927.19;5069840;28;20230;-69
2022/05/14 11:21:00;;;;;;;7.93;4.85;;;;;;;29.10;60.68;99927.28;5070355;28;20198;-69
2022/05/14 11:23:28;;;;;;;7.07;5.05;;;;;;;29.26;59.27;99936.06;5070686;28;20222;-69
2022/05/14 11:26:08;;;;;;;5.00;4.55;;;;;;;29.15;57.31;99929.66;5070358;28;20206;-70
2022/05/14 11:28:35;;;;;;;6.32;4.50;;;;;;;29.04;57.19;99911.63;5034496;28;20209;-69
2022/05/14 11:31:17;;;;;;;8.73;5.20;;;;;;;29.36;57.08;99923.81;5069876;28;20194;-69
2022/05/14 11:33:45;;;;;;;5.10;4.70;;;;;;;29.39;55.27;99925.47;5070337;28;20259;-69
2022/05/14 11:36:22;;;;;;;12.75;5.10;;;;;;;29.52;55.83;99915.66;5070260;28;20222;-69
2022/05/14 11:39:06;;;;;;;5.35;4.65;;;;;;;29.14;55.67;99906.59;5051059;28;20202;-69
2022/05/14 11:41:35;;;;;;;5.53;5.00;;;;;;;29.42;56.19;99911.91;5070031;28;20209;-69
2022/05/14 11:44:04;;;;;;;7.47;4.80;;;;;;;29.78;55.65;99920.16;5069586;28;20256;-69
2022/05/14 11:46:35;;;;;;;5.90;4.72;;;;;;;29.81;55.19;99903.91;5069429;28;20198;-69
2022/05/14 11:49:09;;;;;;;7.85;5.13;;;;;;;29.72;55.74;99899.16;5069626;28;20673;-69
2022/05/14 11:51:41;;;;;;;28.98;17.20;;;;;;;29.94;56.49;99911.97;5070112;28;20193;-68
2022/05/14 11:54:14;;;;;;;5.88;4.70;;;;;;;29.82;55.94;99904.78;5070211;28;20195;-69
2022/05/14 11:56:49;;;;;;;5.03;4.60;;;;;;;29.85;55.76;99900.09;5070183;28;20202;-69
2022/05/14 11:59:22;;;;;;;11.82;4.38;;;;;;;29.68;54.61;99881.59;5069778;28;20201;-70